createdAt,value
2022-08-19T00:01:29.115Z,98156.97
2022-08-19T00:04:35.835Z,98156.13
2022-08-19T00:07:37.393Z,98153.56
2022-08-19T00:10:38.729Z,98154.41
2022-08-19T00:13:40.165Z,98146.47
2022-08-19T00:16:42.202Z,98152.63
2022-08-19T00:19:43.555Z,98151.69
2022-08-19T00:22:45.348Z,98156.97
2022-08-19T00:25:48.781Z,98149.00
2022-08-19T00:28:50.263Z,98163.06
2022-08-19T00:31:54.435Z,98161.28
2022-08-19T00:34:56.116Z,98151.50
2022-08-19T00:37:57.480Z,98140.03
2022-08-19T00:40:59.666Z,98134.69
2022-08-19T00:44:08.916Z,98142.72
2022-08-19T00:47:14.151Z,98150.84
2022-08-19T00:50:16.038Z,98152.75
2022-08-19T00:53:18.532Z,98149.16
2022-08-19T00:56:19.943Z,98150.09
2022-08-19T00:59:56.372Z,98143.09
2022-08-19T01:02:42.654Z,98142.25
2022-08-19T01:05:44.891Z,98142.16
2022-08-19T01:08:46.242Z,98142.25
2022-08-19T01:11:51.658Z,98137.06
2022-08-19T01:14:53.099Z,98136.97
2022-08-19T01:17:54.480Z,98136.97
2022-08-19T01:20:56.894Z,98133.38
2022-08-19T01:23:58.232Z,98126.78
2022-08-19T01:26:59.587Z,98120.47
2022-08-19T01:30:00.924Z,98130.94
2022-08-19T01:33:02.495Z,98139.72
2022-08-19T01:36:11.664Z,98128.38
2022-08-19T01:39:14.147Z,98127.50
2022-08-19T01:42:15.675Z,98130.84
2022-08-19T01:45:17.449Z,98132.66
2022-08-19T01:48:18.802Z,98137.94
2022-08-19T01:51:20.174Z,98121.09
2022-08-19T01:54:23.152Z,98111.47
2022-08-19T01:57:29.377Z,98110.63
2022-08-19T02:00:30.728Z,98105.34
2022-08-19T02:03:32.101Z,98113.19
2022-08-19T02:06:34.086Z,98106.13
2022-08-19T02:09:35.439Z,98105.19
2022-08-19T02:12:37.019Z,98107.91
2022-08-19T02:15:38.970Z,98104.41
2022-08-19T02:18:40.332Z,98105.38
2022-08-19T02:21:41.704Z,98114.22
2022-08-19T02:24:44.162Z,98121.22
2022-08-19T02:27:45.542Z,98125.72
2022-08-19T02:30:47.092Z,98122.22
2022-08-19T02:33:48.503Z,98121.34
2022-08-19T02:36:51.626Z,98118.78
2022-08-19T02:39:53.566Z,98116.06
2022-08-19T02:42:55.091Z,98118.66
2022-08-19T02:45:56.488Z,98119.59
2022-08-19T02:48:58.643Z,98114.34
2022-08-19T02:52:00.023Z,98116.00
2022-08-19T02:55:02.007Z,98115.09
2022-08-19T02:58:03.436Z,98110.91
2022-08-19T03:01:09.644Z,98116.13
2022-08-19T03:04:11.632Z,98106.53
2022-08-19T03:07:16.094Z,98108.31
2022-08-19T03:10:17.453Z,98102.91
2022-08-19T03:13:18.891Z,98113.38
2022-08-19T03:16:20.298Z,98121.28
2022-08-19T03:19:24.589Z,98116.13
2022-08-19T03:22:26.383Z,98110.00
2022-08-19T03:25:27.703Z,98123.88
2022-08-19T03:28:29.374Z,98131.75
2022-08-19T03:31:45.626Z,98133.47
2022-08-19T03:34:53.800Z,98143.03
2022-08-19T03:37:55.183Z,98143.09
2022-08-19T03:40:56.526Z,98141.31
2022-08-19T03:43:58.286Z,98134.31
2022-08-19T03:46:59.807Z,98135.25
2022-08-19T03:50:01.169Z,98131.75
2022-08-19T03:53:02.522Z,98130.84
2022-08-19T03:56:03.923Z,98135.38
2022-08-19T03:59:06.182Z,98134.50
2022-08-19T04:02:10.228Z,98134.53
2022-08-19T04:05:11.784Z,98145.94
2022-08-19T04:08:14.040Z,98140.66
2022-08-19T04:11:17.953Z,98142.47
2022-08-19T04:14:19.679Z,98134.72
2022-08-19T04:17:21.036Z,98129.53
2022-08-19T04:20:22.478Z,98141.69
2022-08-19T04:23:23.965Z,98148.69
2022-08-19T04:26:26.170Z,98154.81
2022-08-19T04:29:27.977Z,98157.53
2022-08-19T04:32:29.579Z,98151.41
2022-08-19T04:35:35.607Z,98153.22
2022-08-19T04:38:36.995Z,98150.66
2022-08-19T04:41:57.233Z,98155.00
2022-08-19T04:44:59.606Z,98149.72
2022-08-19T04:48:26.280Z,98139.03
2022-08-19T04:51:24.216Z,98153.03
2022-08-19T04:54:38.346Z,98159.06
2022-08-19T04:57:41.314Z,98153.75
2022-08-19T05:00:42.844Z,98160.72
2022-08-19T05:03:44.277Z,98163.31
2022-08-19T05:06:45.882Z,98160.63
2022-08-19T05:09:57.725Z,98168.66
2022-08-19T05:13:00.357Z,98169.69
2022-08-19T05:16:01.728Z,98174.16
2022-08-19T05:19:21.937Z,98179.22
2022-08-19T05:22:38.278Z,98184.59
2022-08-19T05:25:40.048Z,98186.28
2022-08-19T05:28:42.979Z,98187.09
2022-08-19T05:31:44.376Z,98188.75
2022-08-19T05:34:45.727Z,98199.22
2022-08-19T05:37:47.113Z,98196.41
2022-08-19T05:40:50.236Z,98192.81
2022-08-19T05:43:51.663Z,98200.66
2022-08-19T05:46:53.928Z,98200.75
2022-08-19T05:49:55.598Z,98209.59
2022-08-19T05:52:57.141Z,98210.25
2022-08-19T05:55:58.695Z,98213.66
2022-08-19T05:59:00.291Z,98207.53
2022-08-19T06:02:01.679Z,98210.94
2022-08-19T06:05:03.821Z,98210.06
2022-08-19T06:08:06.363Z,98222.63
2022-08-19T06:11:33.539Z,98220.66
2022-08-19T06:14:35.595Z,98221.31
2022-08-19T06:17:42.652Z,98231.81
2022-08-19T06:20:55.431Z,98232.56
2022-08-19T06:23:57.284Z,98238.03
2022-08-19T06:27:01.397Z,98243.28
2022-08-19T06:30:04.197Z,98251.22
2022-08-19T06:33:05.555Z,98253.66
2022-08-19T06:36:06.954Z,98251.06
2022-08-19T06:39:09.351Z,98255.31
2022-08-19T06:42:12.705Z,98257.84
2022-08-19T06:45:14.168Z,98264.06
2022-08-19T06:48:15.705Z,98261.97
2022-08-19T06:51:20.083Z,98277.69
2022-08-19T06:54:21.489Z,98281.03
2022-08-19T06:57:23.032Z,98274.13
2022-08-19T07:00:24.430Z,98273.44
2022-08-19T07:03:25.896Z,98273.44
2022-08-19T07:06:44.437Z,98277.69
2022-08-19T07:09:46.021Z,98274.84
2022-08-19T07:12:59.961Z,98274.00
2022-08-19T07:16:05.590Z,98275.00
2022-08-19T07:19:16.016Z,98276.53
2022-08-19T07:22:18.812Z,98277.25
2022-08-19T07:25:21.784Z,98287.66
2022-08-19T07:28:33.906Z,98283.03
2022-08-19T07:31:38.881Z,98290.84
2022-08-19T07:34:40.256Z,98280.16
2022-08-19T07:37:45.155Z,98287.03
2022-08-19T07:40:47.011Z,98297.56
2022-08-19T07:43:48.499Z,98301.16
2022-08-19T07:46:53.184Z,98302.88
2022-08-19T07:49:54.926Z,98292.41
2022-08-19T07:52:56.379Z,98300.22
2022-08-19T07:56:04.345Z,98290.38
2022-08-19T07:59:06.011Z,98290.22
2022-08-19T08:02:07.394Z,98290.84
2022-08-19T08:05:28.031Z,98292.56
2022-08-19T08:08:48.554Z,98298.47
2022-08-19T08:12:05.108Z,98294.97
2022-08-19T08:15:12.458Z,98301.91
2022-08-19T08:18:14.525Z,98300.59
2022-08-19T08:21:15.963Z,98307.66
2022-08-19T08:24:17.365Z,98316.66
2022-08-19T08:27:20.893Z,98322.81
2022-08-19T08:30:31.338Z,98324.63
2022-08-19T08:33:35.257Z,98326.34
2022-08-19T08:36:38.080Z,98334.88
2022-08-19T08:39:39.465Z,98334.75
2022-08-19T08:42:41.835Z,98340.19
2022-08-19T08:45:44.651Z,98336.34
2022-08-19T08:48:47.840Z,98339.84
2022-08-19T08:52:03.190Z,98343.88
2022-08-19T08:55:10.123Z,98355.00
2022-08-19T08:58:17.523Z,98345.63
2022-08-19T09:01:20.200Z,98353.81
2022-08-19T09:04:21.575Z,98349.31
2022-08-19T09:07:34.674Z,98359.56
2022-08-19T09:10:44.968Z,98369.69
2022-08-19T09:13:50.082Z,98374.56
2022-08-19T09:16:52.511Z,98374.03
2022-08-19T09:19:55.192Z,98374.78
2022-08-19T09:22:56.634Z,98370.66
2022-08-19T09:25:58.507Z,98376.03
2022-08-19T09:29:01.137Z,98377.22
2022-08-19T09:32:02.531Z,98376.50
2022-08-19T09:35:03.973Z,98378.81
2022-08-19T09:38:10.246Z,98376.66
2022-08-19T09:41:15.627Z,98368.91
2022-08-19T09:44:16.967Z,98368.19
2022-08-19T09:47:20.077Z,98368.66
2022-08-19T09:50:21.530Z,98370.25
2022-08-19T09:53:23.496Z,98374.59
2022-08-19T09:56:27.033Z,98376.47
2022-08-19T09:59:28.449Z,98379.78
2022-08-19T10:02:34.766Z,98382.81
2022-08-19T10:05:55.235Z,98381.84
2022-08-19T10:08:56.912Z,98392.25
2022-08-19T10:12:01.464Z,98386.38
2022-08-19T10:15:04.432Z,98399.59
2022-08-19T10:18:06.106Z,98400.06
2022-08-19T10:21:09.474Z,98395.03
2022-08-19T10:24:13.059Z,98394.53
2022-08-19T10:27:15.092Z,98397.06
2022-08-19T10:30:17.510Z,98395.44
2022-08-19T10:33:38.263Z,98387.47
2022-08-19T10:36:43.297Z,98377.41
2022-08-19T10:39:58.064Z,98378.97
2022-08-19T10:42:59.536Z,98375.88
2022-08-19T10:46:00.940Z,98381.34
2022-08-19T10:49:02.697Z,98388.47
2022-08-19T10:52:27.323Z,98379.84
2022-08-19T10:55:52.849Z,98383.44
2022-08-19T10:58:54.503Z,98377.19
2022-08-19T11:01:59.729Z,98375.97
2022-08-19T11:05:09.090Z,98373.22
2022-08-19T11:08:23.250Z,98378.16
2022-08-19T11:11:25.323Z,98381.06
2022-08-19T11:14:26.675Z,98377.69
2022-08-19T11:17:32.590Z,98376.06
2022-08-19T11:20:34.402Z,98375.09
2022-08-19T11:23:37.005Z,98368.91
2022-08-19T11:26:38.541Z,98365.72
2022-08-19T11:29:40.040Z,98363.44
2022-08-19T11:32:44.649Z,98361.03
2022-08-19T11:35:50.380Z,98366.91
2022-08-19T11:38:51.747Z,98350.56
2022-08-19T11:41:53.119Z,98344.97
2022-08-19T11:44:54.647Z,98353.88
2022-08-19T11:47:56.255Z,98346.00
2022-08-19T11:50:57.772Z,98347.63
2022-08-19T11:53:59.251Z,98357.69
2022-08-19T11:57:02.045Z,98350.94
2022-08-19T12:00:04.902Z,98357.88
2022-08-19T12:03:06.250Z,98351.50
2022-08-19T12:06:08.614Z,98349.44
2022-08-19T12:09:10.454Z,98360.94
2022-08-19T12:12:11.953Z,98358.41
2022-08-19T12:15:13.676Z,98357.84
2022-08-19T12:18:15.171Z,98357.28
2022-08-19T12:21:16.977Z,98352.69
2022-08-19T12:24:23.967Z,98357.91
2022-08-19T12:27:39.967Z,98351.44
2022-08-19T12:30:42.065Z,98357.13
2022-08-19T12:33:43.428Z,98354.00
2022-08-19T12:36:44.800Z,98349.03
2022-08-19T12:39:46.182Z,98349.84
2022-08-19T12:42:47.898Z,98350.16
2022-08-19T12:45:49.288Z,98339.06
2022-08-19T12:48:55.328Z,98357.94
2022-08-19T12:51:59.036Z,98356.22
2022-08-19T12:55:00.554Z,98359.28
2022-08-19T12:58:04.803Z,98355.22
2022-08-19T13:01:10.198Z,98348.81
2022-08-19T13:04:11.687Z,98351.94
2022-08-19T13:07:13.111Z,98351.78
2022-08-19T13:10:18.058Z,98347.13
2022-08-19T13:13:19.399Z,98346.38
2022-08-19T13:16:21.290Z,98337.25
2022-08-19T13:19:24.417Z,98322.38
2022-08-19T13:22:26.392Z,98324.56
2022-08-19T13:25:27.842Z,98319.31
2022-08-19T13:28:49.256Z,98322.00
2022-08-19T13:32:09.360Z,98315.75
2022-08-19T13:35:16.825Z,98319.91
2022-08-19T13:38:19.445Z,98305.88
2022-08-19T13:41:20.927Z,98299.13
2022-08-19T13:44:22.334Z,98301.81
2022-08-19T13:47:23.709Z,98302.19
2022-08-19T13:50:27.566Z,98304.50
2022-08-19T13:53:31.985Z,98309.31
2022-08-19T13:56:33.333Z,98301.69
2022-08-19T13:59:34.669Z,98306.97
2022-08-19T14:02:36.116Z,98323.63
2022-08-19T14:05:37.452Z,98321.03
2022-08-19T14:08:44.234Z,98331.25
2022-08-19T14:11:47.575Z,98330.53
2022-08-19T14:14:48.924Z,98329.41
2022-08-19T14:17:50.380Z,98338.06
2022-08-19T14:20:52.104Z,98336.25
2022-08-19T14:23:53.497Z,98330.97
2022-08-19T14:26:54.864Z,98334.69
2022-08-19T14:29:56.638Z,98347.44
2022-08-19T14:32:59.192Z,98338.88
2022-08-19T14:36:01.382Z,98343.16
2022-08-19T14:39:02.753Z,98338.28
2022-08-19T14:42:11.221Z,98323.03
2022-08-19T14:45:12.971Z,98321.16
2022-08-19T14:48:19.060Z,98324.28
2022-08-19T14:51:21.309Z,98328.59
2022-08-19T14:54:25.398Z,98314.13
2022-08-19T14:57:31.708Z,98313.22
2022-08-19T15:00:33.062Z,98312.53
2022-08-19T15:03:38.287Z,98312.72
2022-08-19T15:06:39.730Z,98314.53
2022-08-19T15:09:42.328Z,98316.84
2022-08-19T15:12:43.720Z,98313.31
2022-08-19T15:15:46.259Z,98306.66
2022-08-19T15:18:47.880Z,98309.91
2022-08-19T15:21:49.898Z,98305.41
2022-08-19T15:24:51.276Z,98316.19
2022-08-19T15:27:54.091Z,98308.84
2022-08-19T15:30:55.748Z,98307.50
2022-08-19T15:33:58.802Z,98302.44
2022-08-19T15:37:00.452Z,98293.00
2022-08-19T15:40:14.296Z,98317.25
2022-08-19T15:43:16.151Z,98315.38
2022-08-19T15:46:18.537Z,98313.91
2022-08-19T15:49:20.264Z,98312.47
2022-08-19T15:52:21.612Z,98316.50
2022-08-19T15:55:32.828Z,98320.63
2022-08-19T15:58:54.493Z,98335.28
2022-08-19T16:02:14.861Z,98327.00
2022-08-19T16:05:36.143Z,98323.44
2022-08-19T16:08:47.938Z,98325.13
2022-08-19T16:11:56.481Z,98329.94
2022-08-19T16:14:58.505Z,98329.19
2022-08-19T16:18:02.294Z,98334.16
2022-08-19T16:21:04.604Z,98328.78
2022-08-19T16:24:06.713Z,98331.59
2022-08-19T16:27:08.069Z,98325.72
2022-08-19T16:30:09.603Z,98335.63
2022-08-19T16:33:10.999Z,98337.78
2022-08-19T16:36:12.379Z,98341.44
2022-08-19T16:39:14.583Z,98330.16
2022-08-19T16:42:15.934Z,98338.84
2022-08-19T16:45:19.467Z,98335.91
2022-08-19T16:48:21.742Z,98344.50
2022-08-19T16:51:23.120Z,98340.97
2022-08-19T16:54:24.513Z,98340.75
2022-08-19T16:57:25.910Z,98345.47
2022-08-19T17:00:27.248Z,98340.84
2022-08-19T17:03:36.635Z,98349.34
2022-08-19T17:06:39.541Z,98353.88
2022-08-19T17:09:40.991Z,98362.97
2022-08-19T17:12:42.638Z,98366.31
2022-08-19T17:15:43.973Z,98358.53
2022-08-19T17:18:45.382Z,98357.63
2022-08-19T17:21:47.042Z,98367.47
2022-08-19T17:24:48.392Z,98367.00
2022-08-19T17:27:51.493Z,98370.81
2022-08-19T17:30:53.179Z,98366.59
2022-08-19T17:33:55.014Z,98366.91
2022-08-19T17:36:56.915Z,98362.91
2022-08-19T17:39:58.420Z,98366.06
2022-08-19T17:43:00.127Z,98378.50
2022-08-19T17:46:03.185Z,98370.63
2022-08-19T17:49:04.622Z,98372.41
2022-08-19T17:52:09.827Z,98379.72
2022-08-19T17:55:11.499Z,98378.25
2022-08-19T17:58:12.851Z,98376.72
2022-08-19T18:01:15.241Z,98380.47
2022-08-19T18:04:19.670Z,98388.84
2022-08-19T18:07:21.618Z,98389.00
2022-08-19T18:10:23.826Z,98396.91
2022-08-19T18:13:36.200Z,98401.25
2022-08-19T18:16:39.284Z,98405.28
2022-08-19T18:19:42.970Z,98399.97
2022-08-19T18:22:45.702Z,98396.19
2022-08-19T18:25:47.058Z,98404.88
2022-08-19T18:28:50.047Z,98402.88
2022-08-19T18:31:51.535Z,98406.41
2022-08-19T18:34:53.169Z,98408.22
2022-08-19T18:37:55.779Z,98406.56
2022-08-19T18:41:15.890Z,98414.13
2022-08-19T18:44:35.864Z,98414.03
2022-08-19T18:47:56.079Z,98426.44
2022-08-19T18:50:57.947Z,98433.13
2022-08-19T18:53:59.551Z,98434.44
2022-08-19T18:57:00.928Z,98439.63
2022-08-19T19:00:05.183Z,98441.66
2022-08-19T19:03:06.567Z,98442.75
2022-08-19T19:06:07.972Z,98453.56
2022-08-19T19:09:10.039Z,98461.81
2022-08-19T19:12:11.578Z,98458.47
2022-08-19T19:15:13.075Z,98461.41
2022-08-19T19:18:14.412Z,98463.72
2022-08-19T19:21:15.773Z,98470.16
2022-08-19T19:24:17.862Z,98469.88
2022-08-19T19:27:20.542Z,98479.31
2022-08-19T19:30:25.826Z,98478.97
2022-08-19T19:33:27.426Z,98480.88
2022-08-19T19:36:28.788Z,98490.78
2022-08-19T19:39:45.202Z,98491.91
2022-08-19T19:42:48.076Z,98499.84
2022-08-19T19:45:49.405Z,98502.63
2022-08-19T19:48:50.753Z,98505.38
2022-08-19T19:51:52.117Z,98507.28
2022-08-19T19:54:56.636Z,98517.09
2022-08-19T19:57:57.987Z,98516.25
2022-08-19T20:01:00.754Z,98517.31
2022-08-19T20:04:05.222Z,98524.53
2022-08-19T20:07:06.580Z,98535.06
2022-08-19T20:10:08.965Z,98526.13
2022-08-19T20:13:11.189Z,98540.25
2022-08-19T20:16:13.020Z,98540.16
2022-08-19T20:19:15.651Z,98544.41
2022-08-19T20:22:17.017Z,98542.13
2022-08-19T20:25:18.584Z,98551.22
2022-08-19T20:28:23.923Z,98556.69
2022-08-19T20:31:27.206Z,98553.59
2022-08-19T20:34:32.056Z,98554.41
2022-08-19T20:37:33.474Z,98561.94
2022-08-19T20:40:35.806Z,98552.28
2022-08-19T20:43:37.813Z,98565.50
2022-08-19T20:46:39.815Z,98560.31
2022-08-19T20:49:41.176Z,98566.53
2022-08-19T20:52:42.555Z,98563.19
2022-08-19T20:55:53.823Z,98562.28
2022-08-19T20:59:04.356Z,98557.91
2022-08-19T21:02:05.795Z,98563.66
2022-08-19T21:05:07.494Z,98563.19
2022-08-19T21:08:09.173Z,98571.47
2022-08-19T21:11:10.589Z,98571.41
2022-08-19T21:14:12.843Z,98571.56
2022-08-19T21:17:14.208Z,98572.66
2022-08-19T21:20:15.533Z,98574.53
2022-08-19T21:23:18.427Z,98571.91
2022-08-19T21:26:19.859Z,98561.72
2022-08-19T21:29:21.208Z,98568.91
2022-08-19T21:32:23.600Z,98564.63
2022-08-19T21:35:24.981Z,98565.66
2022-08-19T21:38:26.382Z,98566.66
2022-08-19T21:41:27.815Z,98565.00
2022-08-19T21:44:29.158Z,98565.25
2022-08-19T21:47:30.500Z,98569.00
2022-08-19T21:50:32.598Z,98570.84
2022-08-19T21:53:34.737Z,98572.09
2022-08-19T21:56:36.276Z,98577.75
2022-08-19T21:59:39.723Z,98580.38
2022-08-19T22:02:44.932Z,98577.81
2022-08-19T22:05:46.269Z,98578.59
2022-08-19T22:08:47.757Z,98575.34
2022-08-19T22:11:49.460Z,98569.25
2022-08-19T22:14:51.611Z,98574.78
2022-08-19T22:17:53.200Z,98570.69
2022-08-19T22:20:54.701Z,98574.22
2022-08-19T22:23:56.064Z,98572.34
2022-08-19T22:26:57.588Z,98568.78
2022-08-19T22:29:58.942Z,98571.56
2022-08-19T22:33:01.212Z,98577.88
2022-08-19T22:36:04.413Z,98572.66
2022-08-19T22:39:05.779Z,98570.94
2022-08-19T22:42:07.428Z,98567.28
2022-08-19T22:45:09.348Z,98566.38
2022-08-19T22:48:11.464Z,98565.50
2022-08-19T22:51:31.549Z,98573.66
2022-08-19T22:54:32.893Z,98566.97
2022-08-19T22:57:34.327Z,98568.00
2022-08-19T23:00:35.673Z,98569.84
2022-08-19T23:03:37.107Z,98571.78
2022-08-19T23:06:41.869Z,98570.94
2022-08-19T23:09:43.736Z,98568.56
2022-08-19T23:12:46.622Z,98576.41
2022-08-19T23:15:48.012Z,98571.97
2022-08-19T23:18:49.362Z,98571.06
2022-08-19T23:21:57.627Z,98561.53
2022-08-19T23:25:05.617Z,98554.66
2022-08-19T23:28:30.313Z,98556.66
2022-08-19T23:31:31.664Z,98554.88
2022-08-19T23:34:33.011Z,98548.81
2022-08-19T23:37:34.367Z,98545.50
2022-08-19T23:40:36.053Z,98542.13
2022-08-19T23:43:38.792Z,98543.13
2022-08-19T23:46:54.293Z,98540.63
2022-08-19T23:49:56.955Z,98539.91
2022-08-19T23:52:58.670Z,98539.91
2022-08-19T23:56:00.026Z,98541.63
2022-08-19T23:59:01.387Z,98542.41
